createdAt,value
2022-12-04T00:01:21.375Z,26.77
2022-12-04T00:03:52.048Z,26.92
2022-12-04T00:06:20.840Z,28.70
2022-12-04T00:08:48.507Z,27.90
2022-12-04T00:11:18.441Z,27.15
2022-12-04T00:13:46.181Z,27.90
2022-12-04T00:16:17.309Z,28.77
2022-12-04T00:18:44.879Z,28.45
2022-12-04T00:21:14.628Z,27.65
2022-12-04T00:23:42.681Z,29.92
2022-12-04T00:26:12.813Z,29.25
2022-12-04T00:28:40.604Z,26.48
2022-12-04T00:31:11.020Z,27.45
2022-12-04T00:33:38.751Z,27.15
2022-12-04T00:36:09.989Z,28.98
2022-12-04T00:38:38.159Z,27.52
2022-12-04T00:41:07.746Z,27.30
2022-12-04T00:43:34.806Z,27.90
2022-12-04T00:46:02.320Z,26.48
2022-12-04T00:48:29.580Z,30.05
2022-12-04T00:51:01.186Z,28.13
2022-12-04T00:53:29.035Z,29.05
2022-12-04T00:55:56.472Z,30.25
2022-12-04T00:58:23.795Z,26.33
2022-12-04T01:00:51.252Z,28.38
2022-12-04T01:03:18.840Z,27.80
2022-12-04T01:05:46.319Z,25.88
2022-12-04T01:08:13.463Z,27.20
2022-12-04T01:10:42.403Z,29.83
2022-12-04T01:13:09.622Z,27.65
2022-12-04T01:15:42.550Z,28.20
2022-12-04T01:18:13.555Z,25.05
2022-12-04T01:20:46.159Z,28.48
2022-12-04T01:23:13.248Z,27.83
2022-12-04T01:25:40.564Z,27.90
2022-12-04T01:28:07.654Z,25.45
2022-12-04T01:30:34.980Z,26.02
2022-12-04T01:33:02.033Z,28.40
2022-12-04T01:35:29.365Z,27.15
2022-12-04T01:37:56.417Z,26.33
2022-12-04T01:40:23.835Z,24.20
2022-12-04T01:42:50.923Z,28.08
2022-12-04T01:45:38.992Z,26.95
2022-12-04T01:48:28.047Z,25.88
2022-12-04T01:51:16.552Z,25.17
2022-12-04T01:53:49.617Z,24.27
2022-12-04T01:56:18.058Z,25.30
2022-12-04T01:58:51.528Z,24.65
2022-12-04T02:01:19.264Z,25.33
2022-12-04T02:03:46.531Z,26.35
2022-12-04T02:06:13.911Z,25.98
2022-12-04T02:08:41.144Z,23.40
2022-12-04T02:11:46.541Z,24.98
2022-12-04T02:14:28.350Z,26.40
2022-12-04T02:17:08.604Z,23.90
2022-12-04T02:20:06.876Z,25.08
2022-12-04T02:23:05.334Z,23.60
2022-12-04T02:25:43.832Z,24.67
2022-12-04T02:28:31.254Z,24.63
2022-12-04T02:31:01.013Z,24.52
2022-12-04T02:33:59.265Z,24.85
2022-12-04T02:36:31.449Z,22.88
2022-12-04T02:39:18.216Z,23.15
2022-12-04T02:42:12.166Z,24.33
2022-12-04T02:44:45.159Z,22.85
2022-12-04T02:47:14.737Z,23.70
2022-12-04T02:49:47.086Z,25.00
2022-12-04T02:52:18.719Z,25.45
2022-12-04T02:54:51.581Z,25.13
2022-12-04T02:57:28.428Z,23.27
2022-12-04T02:59:58.528Z,24.08
2022-12-04T03:02:32.076Z,23.65
2022-12-04T03:05:04.023Z,23.27
2022-12-04T03:07:38.569Z,22.92
2022-12-04T03:10:27.115Z,22.95
2022-12-04T03:13:03.396Z,22.33
2022-12-04T03:15:37.103Z,23.63
2022-12-04T03:18:10.221Z,22.27
2022-12-04T03:20:39.205Z,22.83
2022-12-04T03:23:14.702Z,21.38
2022-12-04T03:26:24.094Z,19.67
2022-12-04T03:29:05.219Z,20.25
2022-12-04T03:31:58.647Z,21.38
2022-12-04T03:34:33.172Z,21.27
2022-12-04T03:37:06.145Z,23.95
2022-12-04T03:39:39.455Z,21.98
2022-12-04T03:42:15.636Z,21.13
2022-12-04T03:45:09.219Z,21.77
2022-12-04T03:47:43.790Z,23.10
2022-12-04T03:50:19.394Z,20.17
2022-12-04T03:52:58.335Z,21.08
2022-12-04T03:55:49.702Z,20.10
2022-12-04T03:58:23.120Z,20.63
2022-12-04T04:00:53.192Z,21.35
2022-12-04T04:03:30.267Z,20.83
2022-12-04T04:06:14.190Z,18.50
2022-12-04T04:08:46.943Z,20.70
2022-12-04T04:11:37.492Z,20.17
2022-12-04T04:14:30.191Z,19.25
2022-12-04T04:17:23.903Z,19.27
2022-12-04T04:20:24.848Z,19.73
2022-12-04T04:23:14.910Z,21.25
2022-12-04T04:25:44.265Z,19.90
2022-12-04T04:28:49.957Z,22.20
2022-12-04T04:31:54.046Z,20.20
2022-12-04T04:34:57.366Z,19.35
2022-12-04T04:37:51.678Z,20.67
2022-12-04T04:40:35.040Z,19.35
2022-12-04T04:43:48.090Z,19.90
2022-12-04T04:46:25.366Z,18.25
2022-12-04T04:48:56.723Z,19.35
2022-12-04T04:51:24.210Z,19.75
2022-12-04T04:53:55.382Z,20.67
2022-12-04T04:56:22.471Z,21.17
2022-12-04T04:58:50.112Z,21.15
2022-12-04T05:01:20.632Z,21.38
2022-12-04T05:03:48.135Z,19.25
2022-12-04T05:06:15.740Z,20.27
2022-12-04T05:08:44.231Z,21.45
2022-12-04T05:11:14.145Z,22.20
2022-12-04T05:13:42.361Z,21.65
2022-12-04T05:16:13.730Z,22.17
2022-12-04T05:19:01.813Z,21.55
2022-12-04T05:21:29.030Z,22.25
2022-12-04T05:23:56.472Z,24.05
2022-12-04T05:26:23.831Z,24.70
2022-12-04T05:28:51.300Z,21.00
2022-12-04T05:31:18.566Z,23.15
2022-12-04T05:33:45.994Z,23.45
2022-12-04T05:36:13.451Z,23.90
2022-12-04T05:38:41.171Z,24.00
2022-12-04T05:41:08.672Z,22.38
2022-12-04T05:43:36.386Z,23.65
2022-12-04T05:46:08.548Z,24.40
2022-12-04T05:48:36.090Z,22.48
2022-12-04T05:51:08.588Z,23.15
2022-12-04T05:53:36.642Z,24.85
2022-12-04T05:56:05.171Z,25.80
2022-12-04T05:58:38.448Z,25.02
2022-12-04T06:01:23.495Z,22.58
2022-12-04T06:03:51.027Z,25.40
2022-12-04T06:06:22.570Z,24.23
2022-12-04T06:08:52.020Z,23.02
2022-12-04T06:11:22.366Z,22.52
2022-12-04T06:13:50.013Z,23.42
2022-12-04T06:16:26.246Z,23.90
2022-12-04T06:18:59.481Z,23.08
2022-12-04T06:21:33.203Z,23.60
2022-12-04T06:24:01.266Z,23.52
2022-12-04T06:26:29.121Z,23.38
2022-12-04T06:28:57.988Z,25.17
2022-12-04T06:31:26.922Z,23.02
2022-12-04T06:33:56.127Z,24.00
2022-12-04T06:36:23.582Z,24.10
2022-12-04T06:38:55.384Z,25.50
2022-12-04T06:41:23.547Z,24.63
2022-12-04T06:43:51.884Z,22.70
2022-12-04T06:46:24.786Z,23.98
2022-12-04T06:48:53.837Z,26.38
2022-12-04T06:51:27.155Z,23.48
2022-12-04T06:53:55.588Z,22.95
2022-12-04T06:56:26.138Z,24.58
2022-12-04T06:58:56.721Z,22.73
2022-12-04T07:01:26.725Z,24.35
2022-12-04T07:03:54.856Z,22.05
2022-12-04T07:06:36.635Z,24.25
2022-12-04T07:09:13.718Z,22.55
2022-12-04T07:14:09.833Z,24.83
2022-12-04T07:16:41.171Z,25.45
2022-12-04T07:19:13.843Z,25.73
2022-12-04T07:21:41.362Z,24.77
2022-12-04T07:24:15.016Z,23.40
2022-12-04T07:26:45.233Z,22.05
2022-12-04T07:29:12.941Z,24.60
2022-12-04T07:31:40.109Z,24.70
2022-12-04T07:34:07.530Z,23.27
2022-12-04T07:36:34.695Z,22.95
2022-12-04T07:39:02.128Z,23.00
2022-12-04T07:41:29.206Z,23.13
2022-12-04T07:43:56.979Z,23.13
2022-12-04T07:46:26.682Z,21.45
2022-12-04T07:48:58.268Z,29.73
2022-12-04T07:51:27.805Z,22.05
2022-12-04T07:54:02.021Z,22.63
2022-12-04T07:59:00.853Z,21.63
2022-12-04T08:01:28.251Z,21.58
2022-12-04T08:03:57.759Z,22.48
2022-12-04T08:06:27.007Z,21.80
2022-12-04T08:08:54.374Z,21.77
2022-12-04T08:11:24.233Z,20.70
2022-12-04T08:14:01.887Z,22.20
2022-12-04T08:16:30.612Z,21.42
2022-12-04T08:18:58.279Z,23.23
2022-12-04T08:21:28.070Z,22.55
2022-12-04T08:23:57.058Z,20.92
2022-12-04T08:26:27.003Z,20.35
2022-12-04T08:28:56.745Z,20.42
2022-12-04T08:31:25.693Z,21.25
2022-12-04T08:33:55.544Z,20.70
2022-12-04T08:36:23.345Z,19.98
2022-12-04T08:38:51.124Z,18.85
2022-12-04T08:41:21.502Z,20.42
2022-12-04T08:43:49.838Z,19.42
2022-12-04T08:46:18.474Z,18.63
2022-12-04T08:48:46.706Z,19.95
2022-12-04T08:51:20.058Z,17.95
2022-12-04T08:53:47.657Z,17.25
2022-12-04T08:56:15.205Z,19.73
2022-12-04T08:58:42.594Z,17.63
2022-12-04T09:01:12.353Z,16.83
2022-12-04T09:03:40.980Z,17.70
2022-12-04T09:06:09.942Z,20.58
2022-12-04T09:08:37.465Z,18.30
2022-12-04T09:11:09.033Z,18.33
2022-12-04T09:13:37.473Z,18.52
2022-12-04T09:16:08.279Z,17.67
2022-12-04T09:18:36.856Z,16.17
2022-12-04T09:21:06.822Z,19.02
2022-12-04T09:23:35.714Z,19.50
2022-12-04T09:26:04.215Z,18.23
2022-12-04T09:28:31.878Z,18.38
2022-12-04T09:31:05.005Z,18.48
2022-12-04T09:33:35.082Z,19.15
2022-12-04T09:36:03.734Z,17.80
2022-12-04T09:38:31.430Z,18.17
2022-12-04T09:41:47.507Z,19.88
2022-12-04T09:44:21.545Z,16.25
2022-12-04T09:47:13.726Z,20.17
2022-12-04T09:49:51.609Z,19.60
2022-12-04T09:52:34.481Z,20.08
2022-12-04T09:55:10.454Z,19.88
2022-12-04T09:58:03.773Z,19.13
2022-12-04T10:00:33.681Z,19.15
2022-12-04T10:03:04.145Z,19.27
2022-12-04T10:06:02.129Z,19.85
2022-12-04T10:08:36.129Z,16.38
2022-12-04T10:11:16.584Z,18.17
2022-12-04T10:13:55.443Z,18.38
2022-12-04T10:16:51.075Z,17.25
2022-12-04T10:19:55.242Z,16.77
2022-12-04T10:22:47.136Z,18.45
2022-12-04T10:25:24.857Z,17.33
2022-12-04T10:28:01.892Z,17.48
2022-12-04T10:30:33.954Z,17.83
2022-12-04T10:33:15.636Z,17.13
2022-12-04T10:35:45.824Z,17.38
2022-12-04T10:38:19.717Z,16.25
2022-12-04T10:40:52.122Z,16.90
2022-12-04T10:43:38.135Z,17.83
2022-12-04T10:46:06.371Z,16.13
2022-12-04T10:48:39.804Z,17.10
2022-12-04T10:51:14.266Z,17.35
2022-12-04T10:53:42.390Z,18.75
2022-12-04T10:56:23.582Z,18.50
2022-12-04T10:59:03.282Z,18.15
2022-12-04T11:01:35.629Z,17.50
2022-12-04T11:04:28.161Z,17.13
2022-12-04T11:07:18.714Z,16.50
2022-12-04T11:09:58.454Z,15.68
2022-12-04T11:12:26.009Z,17.70
2022-12-04T11:15:08.575Z,15.73
2022-12-04T11:17:38.315Z,18.05
2022-12-04T11:20:15.355Z,19.35
2022-12-04T11:22:52.517Z,16.60
2022-12-04T11:25:22.726Z,20.35
2022-12-04T11:27:56.607Z,16.75
2022-12-04T11:30:33.959Z,15.98
2022-12-04T11:33:03.528Z,18.65
2022-12-04T11:35:32.455Z,18.00
2022-12-04T11:38:14.122Z,19.80
2022-12-04T11:40:53.705Z,18.92
2022-12-04T11:43:23.599Z,16.95
2022-12-04T11:46:02.359Z,17.83
2022-12-04T11:48:31.647Z,17.65
2022-12-04T11:51:01.667Z,17.63
2022-12-04T11:53:42.052Z,16.17
2022-12-04T11:56:25.111Z,17.27
2022-12-04T11:59:12.604Z,16.88
2022-12-04T12:01:52.090Z,17.17
2022-12-04T12:04:41.410Z,18.10
2022-12-04T12:07:30.581Z,17.10
2022-12-04T12:10:44.405Z,15.88
2022-12-04T12:13:47.274Z,14.95
2022-12-04T12:16:51.635Z,16.83
2022-12-04T12:19:45.040Z,14.80
2022-12-04T12:22:14.717Z,14.23
2022-12-04T12:24:54.940Z,14.85
2022-12-04T12:27:34.193Z,16.27
2022-12-04T12:30:27.065Z,13.73
2022-12-04T12:33:23.858Z,14.40
2022-12-04T12:36:13.530Z,14.23
2022-12-04T12:39:00.363Z,13.70
2022-12-04T12:41:34.739Z,12.05
2022-12-04T12:44:06.450Z,14.93
2022-12-04T12:46:50.022Z,13.40
2022-12-04T12:49:41.207Z,13.73
2022-12-04T12:52:32.186Z,13.70
2022-12-04T12:55:15.096Z,14.93
2022-12-04T12:57:47.477Z,15.68
2022-12-04T13:00:20.312Z,15.48
2022-12-04T13:03:06.051Z,15.05
2022-12-04T13:05:46.311Z,15.32
2022-12-04T13:08:37.104Z,14.77
2022-12-04T13:11:13.364Z,13.75
2022-12-04T13:13:57.352Z,14.88
2022-12-04T13:16:41.410Z,13.57
2022-12-04T13:19:26.771Z,15.75
2022-12-04T13:22:08.566Z,16.02
2022-12-04T13:25:01.264Z,15.13
2022-12-04T13:27:52.275Z,14.70
2022-12-04T13:30:23.394Z,15.60
2022-12-04T13:33:12.461Z,18.08
2022-12-04T13:35:58.010Z,14.57
2022-12-04T13:38:43.009Z,15.55
2022-12-04T13:41:18.062Z,13.68
2022-12-04T13:43:48.232Z,14.70
2022-12-04T13:46:27.442Z,15.73
2022-12-04T13:48:55.050Z,14.20
2022-12-04T13:51:36.692Z,16.23
2022-12-04T13:54:25.612Z,13.80
2022-12-04T13:56:56.895Z,16.25
2022-12-04T13:59:26.687Z,16.27
2022-12-04T14:02:00.328Z,17.05
2022-12-04T14:04:47.135Z,14.30
2022-12-04T14:07:37.190Z,14.15
2022-12-04T14:10:27.601Z,14.90
2022-12-04T14:13:05.795Z,15.43
2022-12-04T14:15:36.810Z,15.75
2022-12-04T14:18:27.032Z,14.35
2022-12-04T14:21:05.611Z,13.02
2022-12-04T14:23:41.535Z,13.52
2022-12-04T14:26:21.055Z,13.70
2022-12-04T14:28:50.067Z,14.35
2022-12-04T14:31:32.494Z,16.02
2022-12-04T14:34:21.452Z,14.85
2022-12-04T14:36:51.657Z,16.83
2022-12-04T14:39:33.175Z,16.55
2022-12-04T14:42:14.257Z,15.25
2022-12-04T14:44:45.029Z,18.20
2022-12-04T14:47:42.615Z,17.63
2022-12-04T14:50:27.527Z,15.13
2022-12-04T14:53:12.824Z,15.45
2022-12-04T14:56:05.926Z,15.82
2022-12-04T14:58:37.768Z,15.77
2022-12-04T15:01:29.695Z,14.27
2022-12-04T15:04:02.020Z,15.48
2022-12-04T15:06:32.628Z,15.98
2022-12-04T15:09:21.751Z,16.85
2022-12-04T15:12:14.402Z,16.02
2022-12-04T15:14:46.509Z,17.00
2022-12-04T15:17:17.120Z,15.20
2022-12-04T15:19:44.488Z,16.70
2022-12-04T15:22:25.331Z,17.20
2022-12-04T15:24:55.075Z,15.13
2022-12-04T15:27:31.920Z,15.68
2022-12-04T15:32:31.072Z,16.48
2022-12-04T15:35:06.948Z,16.83
2022-12-04T15:37:34.716Z,17.90
2022-12-04T15:40:06.932Z,15.18
2022-12-04T15:42:34.456Z,16.00
2022-12-04T15:45:10.465Z,16.48
2022-12-04T15:47:42.242Z,14.82
2022-12-04T15:50:15.634Z,15.48
2022-12-04T15:53:06.465Z,14.45
2022-12-04T15:55:39.464Z,14.93
2022-12-04T15:58:20.015Z,15.32
2022-12-04T16:00:47.492Z,15.85
2022-12-04T16:03:29.034Z,16.52
2022-12-04T16:06:29.212Z,17.00
2022-12-04T16:08:59.800Z,17.45
2022-12-04T16:11:37.095Z,15.77
2022-12-04T16:14:18.771Z,16.38
2022-12-04T16:16:51.725Z,15.95
2022-12-04T16:19:35.644Z,15.90
2022-12-04T16:22:04.795Z,16.73
2022-12-04T16:24:32.142Z,16.27
2022-12-04T16:27:00.989Z,16.95
2022-12-04T16:29:30.517Z,16.35
2022-12-04T16:32:02.979Z,17.38
2022-12-04T16:34:31.203Z,18.27
2022-12-04T16:36:59.431Z,16.17
2022-12-04T16:39:26.883Z,15.85
2022-12-04T16:41:54.043Z,18.05
2022-12-04T16:44:21.410Z,15.52
2022-12-04T16:46:51.647Z,15.52
2022-12-04T16:49:19.143Z,15.02
2022-12-04T16:51:50.715Z,17.30
2022-12-04T16:54:18.192Z,16.70
2022-12-04T16:56:45.316Z,16.63
2022-12-04T16:59:12.766Z,15.93
2022-12-04T17:01:50.410Z,13.05
2022-12-04T17:04:18.998Z,15.10
2022-12-04T17:06:46.492Z,15.75
2022-12-04T17:09:14.457Z,15.32
2022-12-04T17:11:42.063Z,14.57
2022-12-04T17:14:09.693Z,13.20
2022-12-04T17:16:38.526Z,13.63
2022-12-04T17:19:05.991Z,14.70
2022-12-04T17:21:34.253Z,13.18
2022-12-04T17:24:02.548Z,14.93
2022-12-04T17:26:29.665Z,13.70
2022-12-04T17:28:57.312Z,12.55
2022-12-04T17:31:26.164Z,12.30
2022-12-04T17:33:54.034Z,13.40
2022-12-04T17:36:25.056Z,12.23
2022-12-04T17:38:57.373Z,12.50
2022-12-04T17:41:25.275Z,14.77
2022-12-04T17:43:52.763Z,14.38
2022-12-04T17:46:24.212Z,12.55
2022-12-04T17:48:52.221Z,13.25
2022-12-04T17:51:24.359Z,12.52
2022-12-04T17:53:52.322Z,12.43
2022-12-04T17:56:21.926Z,13.32
2022-12-04T17:58:50.219Z,13.55
2022-12-04T18:01:20.357Z,12.30
2022-12-04T18:03:58.641Z,11.93
2022-12-04T18:06:28.316Z,11.25
2022-12-04T18:08:56.543Z,13.40
2022-12-04T18:11:25.962Z,12.13
2022-12-04T18:14:11.466Z,13.27
2022-12-04T18:16:46.282Z,13.38
2022-12-04T18:19:14.734Z,13.23
2022-12-04T18:21:42.077Z,13.45
2022-12-04T18:24:09.766Z,11.27
2022-12-04T18:26:39.940Z,12.88
2022-12-04T18:29:08.108Z,12.05
2022-12-04T18:31:35.727Z,10.15
2022-12-04T18:34:06.120Z,12.85
2022-12-04T18:36:34.182Z,12.55
2022-12-04T18:39:07.550Z,12.50
2022-12-04T18:41:34.995Z,13.38
2022-12-04T18:44:03.642Z,13.27
2022-12-04T18:46:31.537Z,13.20
2022-12-04T18:49:00.074Z,12.93
2022-12-04T18:51:33.625Z,15.07
2022-12-04T18:54:06.954Z,13.52
2022-12-04T18:56:35.343Z,13.60
2022-12-04T18:59:08.528Z,14.57
2022-12-04T19:01:35.987Z,14.05
2022-12-04T19:04:06.217Z,14.73
2022-12-04T19:06:42.294Z,14.07
2022-12-04T19:09:14.327Z,14.05
2022-12-04T19:11:42.353Z,13.02
2022-12-04T19:14:20.802Z,13.88
2022-12-04T19:16:50.154Z,12.43
2022-12-04T19:19:18.082Z,14.05
2022-12-04T19:21:45.265Z,13.20
2022-12-04T19:24:13.751Z,13.93
2022-12-04T19:26:41.380Z,13.40
2022-12-04T19:29:09.534Z,12.00
2022-12-04T19:31:38.041Z,14.77
2022-12-04T19:34:06.339Z,15.10
2022-12-04T19:36:34.744Z,14.07
2022-12-04T19:39:03.861Z,14.60
2022-12-04T19:41:34.240Z,13.48
2022-12-04T19:44:07.798Z,14.48
2022-12-04T19:46:41.820Z,13.73
2022-12-04T19:49:10.761Z,15.63
2022-12-04T19:51:39.710Z,15.00
2022-12-04T19:54:08.783Z,13.52
2022-12-04T19:56:36.058Z,14.23
2022-12-04T19:59:06.299Z,16.25
2022-12-04T20:01:35.255Z,14.82
2022-12-04T20:04:06.712Z,15.73
2022-12-04T20:06:40.081Z,14.13
2022-12-04T20:09:10.967Z,14.13
2022-12-04T20:11:38.689Z,13.23
2022-12-04T20:14:07.031Z,11.93
2022-12-04T20:16:35.508Z,13.48
2022-12-04T20:19:04.396Z,13.15
2022-12-04T20:21:32.549Z,13.43
2022-12-04T20:24:05.544Z,14.13
2022-12-04T20:26:39.139Z,13.20
2022-12-04T20:29:07.780Z,14.30
2022-12-04T20:31:38.539Z,14.23
2022-12-04T20:34:08.511Z,13.85
2022-12-04T20:36:38.171Z,14.70
2022-12-04T20:39:06.605Z,13.63
2022-12-04T20:41:33.965Z,13.23
2022-12-04T20:44:04.814Z,13.68
2022-12-04T20:46:38.250Z,13.25
2022-12-04T20:49:15.927Z,13.77
2022-12-04T20:51:48.039Z,13.65
2022-12-04T20:54:20.375Z,14.23
2022-12-04T20:56:49.042Z,14.15
2022-12-04T20:59:18.848Z,13.85
2022-12-04T21:01:46.619Z,14.73
2022-12-04T21:04:14.001Z,15.88
2022-12-04T21:06:41.964Z,15.52
2022-12-04T21:09:17.020Z,15.73
2022-12-04T21:11:47.571Z,14.45
2022-12-04T21:14:42.029Z,14.50
2022-12-04T21:17:14.381Z,15.13
2022-12-04T21:19:41.729Z,15.32
2022-12-04T21:22:08.933Z,13.90
2022-12-04T21:24:38.784Z,15.00
2022-12-04T21:27:07.834Z,14.90
2022-12-04T21:29:36.883Z,15.60
2022-12-04T21:32:05.498Z,13.88
2022-12-04T21:34:33.564Z,13.60
2022-12-04T21:37:00.664Z,13.25
2022-12-04T21:39:28.147Z,12.68
2022-12-04T21:42:13.851Z,13.15
2022-12-04T21:44:41.499Z,12.93
2022-12-04T21:47:08.549Z,13.82
2022-12-04T21:49:35.861Z,12.63
2022-12-04T21:52:03.090Z,13.32
2022-12-04T21:54:31.004Z,14.23
2022-12-04T21:56:58.369Z,14.30
2022-12-04T21:59:26.552Z,12.70
2022-12-04T22:01:53.957Z,13.75
2022-12-04T22:04:21.990Z,13.68
2022-12-04T22:06:49.290Z,12.93
2022-12-04T22:09:16.846Z,12.80
2022-12-04T22:11:44.323Z,12.43
2022-12-04T22:14:14.276Z,12.35
2022-12-04T22:16:43.448Z,12.75
2022-12-04T22:19:12.493Z,13.18
2022-12-04T22:21:40.177Z,12.90
2022-12-04T22:24:08.403Z,13.55
2022-12-04T22:26:35.663Z,13.98
2022-12-04T22:29:20.701Z,11.68
2022-12-04T22:31:51.042Z,13.35
2022-12-04T22:34:18.520Z,13.80
2022-12-04T22:36:45.724Z,14.05
2022-12-04T22:39:13.106Z,12.70
2022-12-04T22:41:40.211Z,13.93
2022-12-04T22:44:07.539Z,14.43
2022-12-04T22:46:34.814Z,14.38
2022-12-04T22:49:02.258Z,13.45
2022-12-04T22:51:29.688Z,14.23
2022-12-04T22:53:58.072Z,13.55
2022-12-04T22:56:27.993Z,15.27
2022-12-04T22:58:55.663Z,14.00
2022-12-04T23:01:24.707Z,13.63
2022-12-04T23:03:53.126Z,14.18
2022-12-04T23:06:22.100Z,13.48
2022-12-04T23:08:53.729Z,14.65
2022-12-04T23:11:21.479Z,15.75
2022-12-04T23:13:54.171Z,14.52
2022-12-04T23:16:23.112Z,14.15
2022-12-04T23:18:50.870Z,15.07
2022-12-04T23:21:19.504Z,15.18
2022-12-04T23:23:48.093Z,15.63
2022-12-04T23:26:22.044Z,15.77
2022-12-04T23:28:49.533Z,15.13
2022-12-04T23:31:17.215Z,14.85
2022-12-04T23:33:45.363Z,17.00
2022-12-04T23:36:13.378Z,14.98
2022-12-04T23:38:42.336Z,14.93
2022-12-04T23:41:30.380Z,16.08
2022-12-04T23:43:58.335Z,16.23
2022-12-04T23:46:32.398Z,17.92
2022-12-04T23:49:00.791Z,15.13
2022-12-04T23:51:28.595Z,14.90
2022-12-04T23:53:56.371Z,15.00
2022-12-04T23:56:26.142Z,16.27
2022-12-04T23:58:57.154Z,16.42
